createdAt,value
2023-03-02T00:01:02.639Z,21.30
2023-03-02T00:03:30.805Z,21.31
2023-03-02T00:05:58.833Z,21.32
2023-03-02T00:08:26.882Z,21.30
2023-03-02T00:10:54.668Z,21.32
2023-03-02T00:13:21.569Z,21.33
2023-03-02T00:15:48.161Z,21.32
2023-03-02T00:18:15.063Z,21.32
2023-03-02T00:20:41.656Z,21.33
2023-03-02T00:23:08.240Z,21.33
2023-03-02T00:25:36.294Z,21.37
2023-03-02T00:28:03.265Z,21.35
2023-03-02T00:30:29.882Z,21.33
2023-03-02T00:32:58.459Z,21.34
2023-03-02T00:35:28.743Z,21.32
2023-03-02T00:37:55.520Z,21.32
2023-03-02T00:40:22.138Z,21.31
2023-03-02T00:42:48.787Z,21.28
2023-03-02T00:45:15.578Z,21.25
2023-03-02T00:47:42.528Z,21.24
2023-03-02T00:50:10.218Z,21.24
2023-03-02T00:52:36.835Z,21.23
2023-03-02T00:55:03.814Z,21.22
2023-03-02T00:57:30.422Z,21.21
2023-03-02T00:59:57.157Z,21.23
2023-03-02T01:02:27.978Z,21.23
2023-03-02T01:04:54.882Z,21.23
2023-03-02T01:07:21.734Z,21.24
2023-03-02T01:09:51.255Z,21.20
2023-03-02T01:12:18.239Z,21.20
2023-03-02T01:14:48.164Z,21.19
2023-03-02T01:17:15.672Z,21.19
2023-03-02T01:19:42.943Z,21.20
2023-03-02T01:22:10.032Z,21.19
2023-03-02T01:24:36.738Z,21.20
2023-03-02T01:27:03.445Z,21.21
2023-03-02T01:29:30.150Z,21.19
2023-03-02T01:31:57.088Z,21.21
2023-03-02T01:34:23.797Z,21.21
2023-03-02T01:36:50.497Z,21.21
2023-03-02T01:39:17.150Z,21.20
2023-03-02T01:41:45.798Z,21.19
2023-03-02T01:44:37.882Z,21.17
2023-03-02T01:47:22.996Z,21.16
2023-03-02T01:50:04.630Z,21.15
2023-03-02T01:52:38.416Z,21.12
2023-03-02T01:55:10.462Z,21.14
2023-03-02T01:57:43.732Z,21.13
2023-03-02T02:00:19.430Z,21.13
2023-03-02T02:02:46.672Z,21.10
2023-03-02T02:05:19.578Z,21.11
2023-03-02T02:07:47.322Z,21.11
2023-03-02T02:10:14.670Z,21.09
2023-03-02T02:12:41.512Z,21.03
2023-03-02T02:15:09.204Z,21.07
2023-03-02T02:17:35.883Z,21.09
2023-03-02T02:20:19.462Z,21.03
2023-03-02T02:22:58.879Z,21.00
2023-03-02T02:25:53.077Z,21.02
2023-03-02T02:28:27.679Z,21.01
2023-03-02T02:31:15.468Z,20.99
2023-03-02T02:33:46.623Z,20.96
2023-03-02T02:36:19.717Z,20.92
2023-03-02T02:38:50.176Z,20.93
2023-03-02T02:41:29.752Z,20.93
2023-03-02T02:43:56.960Z,20.92
2023-03-02T02:46:24.785Z,20.90
2023-03-02T02:48:52.522Z,20.91
2023-03-02T02:51:23.690Z,20.92
2023-03-02T02:53:58.925Z,20.85
2023-03-02T02:56:32.160Z,20.83
2023-03-02T02:59:07.065Z,20.84
2023-03-02T03:01:34.804Z,20.81
2023-03-02T03:04:05.386Z,20.76
2023-03-02T03:06:38.547Z,20.79
2023-03-02T03:09:07.830Z,20.82
2023-03-02T03:11:43.389Z,20.83
2023-03-02T03:14:13.811Z,20.85
2023-03-02T03:16:45.942Z,20.85
2023-03-02T03:19:46.474Z,20.81
2023-03-02T03:22:15.667Z,20.82
2023-03-02T03:24:45.538Z,20.85
2023-03-02T03:27:15.793Z,20.83
2023-03-02T03:29:46.885Z,20.80
2023-03-02T03:32:14.642Z,20.71
2023-03-02T03:34:41.924Z,20.76
2023-03-02T03:37:19.744Z,20.83
2023-03-02T03:39:47.590Z,20.83
2023-03-02T03:42:15.855Z,20.82
2023-03-02T03:44:42.734Z,20.70
2023-03-02T03:47:09.708Z,20.68
2023-03-02T03:49:36.859Z,20.60
2023-03-02T03:52:04.978Z,20.64
2023-03-02T03:54:31.537Z,20.66
2023-03-02T03:56:59.176Z,20.66
2023-03-02T03:59:27.004Z,20.67
2023-03-02T04:02:01.165Z,20.66
2023-03-02T04:04:35.390Z,20.64
2023-03-02T04:07:07.233Z,20.68
2023-03-02T04:09:38.021Z,20.56
2023-03-02T04:12:07.854Z,20.62
2023-03-02T04:14:35.402Z,20.62
2023-03-02T04:17:05.218Z,20.66
2023-03-02T04:19:33.285Z,20.58
2023-03-02T04:22:01.830Z,20.55
2023-03-02T04:24:28.729Z,20.60
2023-03-02T04:26:58.596Z,20.57
2023-03-02T04:29:26.786Z,20.53
2023-03-02T04:31:53.978Z,20.60
2023-03-02T04:34:21.739Z,20.61
2023-03-02T04:36:48.353Z,20.53
2023-03-02T04:39:17.323Z,20.52
2023-03-02T04:41:48.452Z,20.55
2023-03-02T04:44:16.635Z,20.54
2023-03-02T04:46:44.864Z,20.50
2023-03-02T04:49:12.603Z,20.52
2023-03-02T04:51:42.600Z,20.62
2023-03-02T04:54:16.054Z,20.68
2023-03-02T04:56:42.717Z,20.61
2023-03-02T04:59:09.334Z,20.57
2023-03-02T05:01:36.062Z,20.57
2023-03-02T05:04:03.162Z,20.53
2023-03-02T05:06:30.059Z,20.54
2023-03-02T05:08:59.797Z,20.55
2023-03-02T05:11:26.829Z,20.55
2023-03-02T05:13:56.626Z,20.54
2023-03-02T05:16:25.209Z,20.45
2023-03-02T05:18:51.998Z,20.46
2023-03-02T05:21:19.039Z,20.40
2023-03-02T05:23:45.876Z,20.49
2023-03-02T05:26:12.927Z,20.54
2023-03-02T05:28:40.067Z,20.60
2023-03-02T05:31:07.310Z,20.61
2023-03-02T05:33:34.096Z,20.55
2023-03-02T05:36:01.218Z,20.51
2023-03-02T05:38:28.049Z,20.42
2023-03-02T05:40:54.650Z,20.35
2023-03-02T05:43:21.928Z,20.26
2023-03-02T05:45:48.499Z,20.25
2023-03-02T05:48:15.725Z,20.28
2023-03-02T05:50:42.348Z,20.32
2023-03-02T05:53:10.004Z,20.33
2023-03-02T05:55:37.951Z,20.30
2023-03-02T05:58:06.916Z,20.41
2023-03-02T06:00:33.546Z,20.52
2023-03-02T06:03:00.264Z,20.53
2023-03-02T06:05:26.896Z,20.54
2023-03-02T06:07:53.838Z,20.54
2023-03-02T06:10:20.465Z,20.38
2023-03-02T06:12:48.108Z,20.30
2023-03-02T06:15:14.780Z,20.28
2023-03-02T06:17:41.612Z,20.23
2023-03-02T06:20:11.379Z,20.18
2023-03-02T06:22:41.308Z,20.15
2023-03-02T06:25:10.611Z,20.20
2023-03-02T06:27:38.893Z,20.23
2023-03-02T06:30:06.630Z,20.31
2023-03-02T06:32:35.204Z,20.43
2023-03-02T06:35:03.265Z,20.49
2023-03-02T06:37:30.413Z,20.51
2023-03-02T06:39:57.322Z,20.47
2023-03-02T06:42:25.212Z,20.47
2023-03-02T06:44:51.871Z,20.39
2023-03-02T06:47:18.645Z,20.32
2023-03-02T06:49:45.223Z,20.34
2023-03-02T06:52:13.607Z,20.27
2023-03-02T06:54:41.121Z,20.26
2023-03-02T06:57:09.188Z,20.25
2023-03-02T06:59:35.863Z,20.23
2023-03-02T07:02:02.603Z,20.23
2023-03-02T07:04:29.166Z,20.19
2023-03-02T07:06:56.117Z,20.19
2023-03-02T07:09:23.122Z,20.33
2023-03-02T07:11:49.861Z,20.43
2023-03-02T07:14:16.382Z,20.50
2023-03-02T07:16:43.096Z,20.44
2023-03-02T07:19:13.956Z,20.41
2023-03-02T07:21:41.296Z,20.37
2023-03-02T07:24:08.120Z,20.37
2023-03-02T07:26:34.826Z,20.35
2023-03-02T07:29:01.852Z,20.37
2023-03-02T07:31:29.086Z,20.41
2023-03-02T07:33:55.579Z,20.45
2023-03-02T07:36:23.248Z,20.42
2023-03-02T07:38:49.772Z,20.41
2023-03-02T07:41:16.978Z,20.39
2023-03-02T07:43:44.000Z,20.34
2023-03-02T07:46:10.618Z,20.28
2023-03-02T07:48:37.542Z,20.40
2023-03-02T07:51:06.760Z,20.49
2023-03-02T07:53:33.456Z,20.56
2023-03-02T07:56:02.259Z,20.38
2023-03-02T07:58:28.861Z,20.20
2023-03-02T08:00:55.511Z,20.26
2023-03-02T08:03:22.039Z,20.23
2023-03-02T08:05:48.630Z,20.26
2023-03-02T08:08:15.242Z,20.27
2023-03-02T08:10:42.014Z,20.26
2023-03-02T08:13:08.586Z,20.26
2023-03-02T08:15:35.312Z,20.25
2023-03-02T08:18:02.113Z,20.21
2023-03-02T08:20:28.789Z,20.18
2023-03-02T08:22:56.039Z,20.12
2023-03-02T08:25:22.773Z,20.05
2023-03-02T08:27:49.347Z,20.02
2023-03-02T08:30:16.270Z,19.96
2023-03-02T08:32:42.810Z,20.02
2023-03-02T08:35:09.715Z,20.10
2023-03-02T08:37:36.339Z,20.24
2023-03-02T08:40:03.786Z,20.18
2023-03-02T08:42:30.322Z,20.26
2023-03-02T08:44:56.859Z,20.22
2023-03-02T08:47:23.490Z,20.18
2023-03-02T08:49:51.260Z,20.13
2023-03-02T08:52:18.081Z,20.29
2023-03-02T08:54:45.061Z,20.37
2023-03-02T08:57:12.224Z,20.39
2023-03-02T08:59:38.956Z,20.38
2023-03-02T09:02:05.668Z,20.52
2023-03-02T09:04:32.390Z,20.60
2023-03-02T09:06:59.050Z,20.67
2023-03-02T09:09:25.543Z,20.75
2023-03-02T09:11:52.188Z,20.74
2023-03-02T09:14:18.785Z,20.62
2023-03-02T09:16:46.228Z,20.58
2023-03-02T09:19:14.106Z,20.59
2023-03-02T09:21:40.787Z,20.41
2023-03-02T09:24:07.544Z,20.35
2023-03-02T09:26:35.008Z,20.36
2023-03-02T09:29:01.849Z,20.34
2023-03-02T09:31:30.231Z,20.31
2023-03-02T09:33:57.201Z,20.35
2023-03-02T09:36:25.724Z,20.38
2023-03-02T09:38:53.461Z,20.37
2023-03-02T09:41:20.365Z,20.37
2023-03-02T09:44:22.141Z,20.37
2023-03-02T09:47:04.972Z,20.41
2023-03-02T09:49:44.032Z,20.38
2023-03-02T09:52:29.216Z,20.41
2023-03-02T09:55:00.019Z,20.49
2023-03-02T09:57:32.664Z,20.51
2023-03-02T10:00:18.765Z,20.51
2023-03-02T10:02:52.775Z,20.61
2023-03-02T10:05:31.674Z,20.70
2023-03-02T10:07:59.453Z,20.88
2023-03-02T10:10:46.504Z,21.08
2023-03-02T10:13:15.745Z,21.24
2023-03-02T10:15:48.705Z,21.42
2023-03-02T10:18:19.612Z,21.50
2023-03-02T10:21:07.195Z,21.55
2023-03-02T10:23:59.761Z,21.64
2023-03-02T10:26:38.633Z,21.71
2023-03-02T10:29:28.044Z,21.77
2023-03-02T10:32:01.853Z,21.84
2023-03-02T10:34:30.551Z,21.88
2023-03-02T10:36:58.171Z,21.94
2023-03-02T10:39:24.675Z,21.98
2023-03-02T10:42:02.910Z,21.92
2023-03-02T10:44:40.100Z,21.87
2023-03-02T10:47:10.971Z,21.93
2023-03-02T10:49:42.616Z,21.84
2023-03-02T10:52:21.105Z,21.83
2023-03-02T10:54:48.431Z,21.86
2023-03-02T10:57:29.260Z,21.98
2023-03-02T11:00:02.199Z,21.88
2023-03-02T11:02:31.944Z,22.06
2023-03-02T11:05:19.156Z,22.09
2023-03-02T11:08:08.459Z,22.30
2023-03-02T11:10:40.990Z,22.44
2023-03-02T11:13:20.625Z,22.56
2023-03-02T11:15:49.373Z,22.70
2023-03-02T11:18:31.249Z,22.79
2023-03-02T11:21:08.372Z,22.85
2023-03-02T11:23:51.864Z,22.91
2023-03-02T11:26:24.741Z,23.03
2023-03-02T11:29:22.565Z,23.16
2023-03-02T11:31:56.648Z,23.26
2023-03-02T11:34:35.840Z,23.32
2023-03-02T11:37:20.708Z,23.36
2023-03-02T11:39:55.601Z,23.45
2023-03-02T11:42:31.054Z,23.53
2023-03-02T11:45:01.886Z,23.31
2023-03-02T11:47:32.856Z,23.42
2023-03-02T11:50:05.371Z,23.56
2023-03-02T11:52:37.798Z,23.68
2023-03-02T11:55:24.805Z,23.77
2023-03-02T11:57:57.787Z,23.86
2023-03-02T12:00:40.247Z,23.95
2023-03-02T12:03:10.565Z,24.00
2023-03-02T12:05:39.817Z,24.04
2023-03-02T12:08:15.420Z,24.08
2023-03-02T12:10:55.296Z,24.11
2023-03-02T12:13:27.628Z,24.16
2023-03-02T12:15:56.441Z,24.23
2023-03-02T12:18:23.023Z,24.30
2023-03-02T12:21:00.610Z,24.33
2023-03-02T12:23:27.316Z,24.39
2023-03-02T12:26:38.518Z,24.44
2023-03-02T12:29:23.316Z,24.49
2023-03-02T12:31:53.468Z,24.46
2023-03-02T12:34:24.069Z,24.43
2023-03-02T12:36:54.967Z,24.52
2023-03-02T12:39:52.711Z,24.58
2023-03-02T12:42:42.408Z,24.60
2023-03-02T12:45:31.846Z,24.56
2023-03-02T12:48:14.360Z,24.66
2023-03-02T12:50:41.197Z,24.75
2023-03-02T12:53:18.382Z,24.61
2023-03-02T12:55:45.167Z,24.72
2023-03-02T12:58:30.210Z,24.35
2023-03-02T13:01:01.396Z,24.48
2023-03-02T13:03:30.675Z,24.60
2023-03-02T13:06:11.736Z,24.71
2023-03-02T13:08:38.427Z,24.82
2023-03-02T13:11:05.540Z,24.83
2023-03-02T13:13:45.126Z,24.70
2023-03-02T13:16:28.179Z,24.47
2023-03-02T13:18:57.663Z,24.63
2023-03-02T13:21:32.823Z,24.66
2023-03-02T13:24:00.262Z,24.63
2023-03-02T13:26:30.999Z,24.84
2023-03-02T13:29:07.749Z,25.05
2023-03-02T13:31:35.134Z,25.01
2023-03-02T13:34:02.083Z,25.24
2023-03-02T13:36:34.487Z,25.41
2023-03-02T13:39:02.756Z,25.58
2023-03-02T13:41:32.480Z,25.47
2023-03-02T13:43:59.640Z,25.22
2023-03-02T13:46:33.907Z,25.26
2023-03-02T13:49:11.233Z,25.21
2023-03-02T13:51:45.107Z,24.90
2023-03-02T13:54:19.022Z,24.84
2023-03-02T13:56:45.797Z,24.93
2023-03-02T13:59:14.822Z,25.05
2023-03-02T14:01:41.665Z,25.15
2023-03-02T14:04:13.751Z,25.29
2023-03-02T14:06:40.563Z,25.40
2023-03-02T14:09:07.143Z,25.49
2023-03-02T14:11:43.785Z,25.57
2023-03-02T14:14:31.673Z,25.63
2023-03-02T14:16:58.391Z,25.70
2023-03-02T14:19:24.935Z,25.79
2023-03-02T14:21:51.692Z,25.89
2023-03-02T14:24:18.244Z,25.94
2023-03-02T14:26:47.780Z,25.99
2023-03-02T14:29:30.950Z,25.98
2023-03-02T14:32:03.507Z,25.69
2023-03-02T14:34:30.234Z,25.76
2023-03-02T14:36:59.149Z,25.86
2023-03-02T14:39:32.384Z,25.96
2023-03-02T14:41:59.327Z,25.93
2023-03-02T14:44:26.131Z,26.02
2023-03-02T14:46:53.191Z,26.13
2023-03-02T14:49:20.688Z,26.21
2023-03-02T14:52:02.749Z,26.26
2023-03-02T14:54:38.382Z,26.39
2023-03-02T14:57:08.171Z,26.15
2023-03-02T14:59:34.902Z,26.42
2023-03-02T15:02:10.464Z,27.49
2023-03-02T15:04:46.103Z,29.94
2023-03-02T15:07:15.976Z,31.17
2023-03-02T15:09:45.390Z,32.03
2023-03-02T15:12:12.243Z,32.36
2023-03-02T15:14:38.854Z,32.08
2023-03-02T15:17:06.026Z,32.75
2023-03-02T15:19:32.872Z,33.25
2023-03-02T15:22:00.590Z,33.63
2023-03-02T15:24:27.116Z,33.62
2023-03-02T15:26:53.842Z,32.70
2023-03-02T15:29:20.568Z,30.90
2023-03-02T15:31:47.474Z,30.36
2023-03-02T15:34:14.256Z,31.77
2023-03-02T15:36:40.917Z,33.05
2023-03-02T15:39:10.564Z,33.68
2023-03-02T15:41:37.223Z,33.98
2023-03-02T15:44:03.917Z,34.21
2023-03-02T15:46:30.466Z,34.09
2023-03-02T15:48:57.211Z,33.90
2023-03-02T15:51:24.654Z,34.05
2023-03-02T15:53:51.333Z,34.24
2023-03-02T15:56:17.934Z,34.27
2023-03-02T15:58:48.724Z,34.40
2023-03-02T16:01:16.251Z,34.37
2023-03-02T16:03:44.139Z,34.30
2023-03-02T16:06:11.291Z,33.96
2023-03-02T16:08:37.991Z,32.98
2023-03-02T16:11:07.476Z,32.69
2023-03-02T16:13:34.937Z,31.48
2023-03-02T16:16:03.404Z,30.21
2023-03-02T16:18:30.763Z,29.37
2023-03-02T16:20:57.459Z,28.77
2023-03-02T16:23:24.264Z,28.27
2023-03-02T16:25:50.969Z,27.89
2023-03-02T16:28:18.928Z,27.58
2023-03-02T16:30:46.749Z,27.38
2023-03-02T16:33:17.640Z,27.15
2023-03-02T16:35:44.859Z,26.90
2023-03-02T16:38:11.566Z,26.76
2023-03-02T16:40:40.046Z,26.57
2023-03-02T16:43:08.999Z,26.43
2023-03-02T16:45:35.744Z,26.20
2023-03-02T16:48:03.914Z,26.12
2023-03-02T16:50:30.526Z,25.80
2023-03-02T16:52:58.726Z,25.60
2023-03-02T16:55:26.439Z,25.45
2023-03-02T16:57:53.430Z,25.41
2023-03-02T17:00:20.981Z,25.19
2023-03-02T17:02:48.825Z,24.02
2023-03-02T17:05:18.492Z,23.83
2023-03-02T17:07:45.421Z,24.08
2023-03-02T17:10:17.508Z,24.28
2023-03-02T17:12:45.249Z,24.37
2023-03-02T17:15:13.890Z,24.45
2023-03-02T17:17:41.100Z,24.51
2023-03-02T17:20:11.850Z,24.45
2023-03-02T17:22:39.003Z,24.30
2023-03-02T17:25:06.271Z,24.23
2023-03-02T17:27:32.823Z,24.21
2023-03-02T17:29:59.395Z,24.19
2023-03-02T17:32:26.034Z,24.18
2023-03-02T17:34:52.617Z,24.12
2023-03-02T17:37:19.386Z,24.09
2023-03-02T17:39:46.026Z,23.93
2023-03-02T17:42:12.572Z,23.49
2023-03-02T17:44:40.229Z,23.37
2023-03-02T17:47:08.274Z,23.54
2023-03-02T17:49:40.215Z,23.56
2023-03-02T17:52:07.070Z,23.66
2023-03-02T17:54:33.675Z,23.70
2023-03-02T17:57:00.372Z,23.38
2023-03-02T17:59:27.000Z,23.09
2023-03-02T18:01:53.557Z,22.99
2023-03-02T18:04:20.147Z,22.90
2023-03-02T18:06:46.670Z,22.88
2023-03-02T18:09:13.435Z,22.81
2023-03-02T18:11:42.286Z,22.83
2023-03-02T18:14:16.003Z,22.80
2023-03-02T18:16:42.493Z,22.81
2023-03-02T18:19:09.296Z,22.83
2023-03-02T18:21:36.466Z,22.74
2023-03-02T18:24:03.936Z,22.66
2023-03-02T18:26:30.546Z,22.56
2023-03-02T18:28:57.443Z,22.47
2023-03-02T18:31:24.055Z,22.43
2023-03-02T18:33:51.939Z,22.46
2023-03-02T18:36:18.609Z,22.47
2023-03-02T18:38:45.408Z,22.38
2023-03-02T18:41:13.935Z,22.49
2023-03-02T18:43:42.168Z,22.58
2023-03-02T18:46:17.912Z,22.56
2023-03-02T18:48:44.535Z,22.44
2023-03-02T18:51:11.117Z,22.51
2023-03-02T18:53:38.173Z,22.56
2023-03-02T18:56:05.235Z,22.57
2023-03-02T18:58:34.185Z,22.56
2023-03-02T19:01:02.616Z,22.55
2023-03-02T19:03:29.660Z,22.38
2023-03-02T19:05:58.041Z,22.35
2023-03-02T19:08:25.940Z,22.15
2023-03-02T19:10:54.487Z,22.20
2023-03-02T19:13:21.702Z,22.18
2023-03-02T19:15:48.262Z,22.05
2023-03-02T19:18:17.025Z,22.03
2023-03-02T19:20:47.544Z,21.99
2023-03-02T19:23:14.988Z,21.98
2023-03-02T19:25:42.656Z,22.13
2023-03-02T19:28:09.300Z,22.16
2023-03-02T19:30:37.004Z,22.19
2023-03-02T19:33:06.526Z,22.05
2023-03-02T19:35:34.507Z,22.00
2023-03-02T19:38:01.326Z,21.94
2023-03-02T19:40:30.217Z,21.96
2023-03-02T19:42:57.144Z,21.95
2023-03-02T19:45:28.621Z,21.93
2023-03-02T19:47:57.772Z,21.95
2023-03-02T19:50:25.460Z,21.89
2023-03-02T19:52:54.794Z,21.83
2023-03-02T19:55:22.356Z,21.85
2023-03-02T19:57:51.502Z,21.84
2023-03-02T20:00:19.403Z,21.84
2023-03-02T20:02:47.311Z,21.86
2023-03-02T20:05:14.667Z,21.83
2023-03-02T20:07:42.160Z,21.82
2023-03-02T20:10:10.245Z,21.82
2023-03-02T20:12:37.149Z,21.83
2023-03-02T20:15:06.372Z,21.89
2023-03-02T20:17:33.857Z,21.95
2023-03-02T20:20:01.310Z,21.94
2023-03-02T20:22:28.134Z,21.95
2023-03-02T20:24:54.769Z,21.96
2023-03-02T20:27:21.342Z,21.99
2023-03-02T20:29:48.633Z,21.99
2023-03-02T20:32:15.810Z,21.95
2023-03-02T20:34:43.499Z,21.90
2023-03-02T20:37:13.463Z,21.91
2023-03-02T20:39:45.164Z,21.94
2023-03-02T20:42:12.233Z,21.93
2023-03-02T20:44:39.018Z,21.92
2023-03-02T20:47:09.705Z,21.88
2023-03-02T20:49:37.551Z,21.85
2023-03-02T20:52:05.722Z,21.86
2023-03-02T20:54:36.838Z,21.82
2023-03-02T20:57:05.378Z,21.77
2023-03-02T20:59:32.498Z,21.75
2023-03-02T21:01:59.589Z,21.75
2023-03-02T21:04:27.211Z,21.58
2023-03-02T21:06:55.045Z,21.60
2023-03-02T21:09:21.763Z,21.65
2023-03-02T21:11:48.486Z,21.67
2023-03-02T21:14:15.337Z,21.66
2023-03-02T21:16:44.082Z,21.68
2023-03-02T21:19:15.631Z,21.70
2023-03-02T21:21:42.754Z,21.69
2023-03-02T21:24:18.529Z,21.64
2023-03-02T21:26:47.478Z,21.64
2023-03-02T21:29:14.809Z,21.59
2023-03-02T21:31:43.728Z,21.58
2023-03-02T21:34:13.898Z,21.62
2023-03-02T21:36:40.897Z,21.61
2023-03-02T21:39:08.623Z,21.62
2023-03-02T21:41:35.999Z,21.62
2023-03-02T21:44:05.523Z,21.60
2023-03-02T21:46:34.713Z,21.55
2023-03-02T21:49:01.338Z,21.54
2023-03-02T21:51:27.983Z,21.54
2023-03-02T21:53:54.551Z,21.52
2023-03-02T21:56:24.747Z,21.52
2023-03-02T21:58:53.737Z,21.54
2023-03-02T22:01:21.097Z,21.54
2023-03-02T22:03:47.821Z,21.53
2023-03-02T22:06:20.282Z,21.51
2023-03-02T22:08:47.197Z,21.47
2023-03-02T22:11:22.651Z,21.43
2023-03-02T22:13:51.238Z,21.46
2023-03-02T22:16:39.469Z,21.46
2023-03-02T22:19:22.588Z,21.41
2023-03-02T22:21:49.774Z,21.42
2023-03-02T22:24:32.569Z,21.38
2023-03-02T22:27:19.457Z,21.42
2023-03-02T22:29:47.505Z,21.47
2023-03-02T22:32:20.623Z,21.51
2023-03-02T22:34:52.518Z,21.55
2023-03-02T22:37:27.741Z,21.52
2023-03-02T22:39:56.876Z,21.49
2023-03-02T22:42:26.968Z,21.42
2023-03-02T22:45:15.377Z,21.34
2023-03-02T22:47:43.214Z,21.29
2023-03-02T22:50:22.254Z,21.23
2023-03-02T22:52:49.087Z,21.20
2023-03-02T22:55:40.002Z,21.18
2023-03-02T22:58:29.070Z,21.16
2023-03-02T23:00:57.755Z,21.16
2023-03-02T23:03:35.551Z,21.16
2023-03-02T23:06:02.322Z,21.11
2023-03-02T23:08:29.999Z,21.17
2023-03-02T23:10:58.671Z,21.18
2023-03-02T23:13:39.680Z,21.20
2023-03-02T23:16:26.240Z,21.23
2023-03-02T23:18:59.175Z,21.17
2023-03-02T23:21:38.963Z,21.14
2023-03-02T23:24:07.486Z,21.09
2023-03-02T23:26:35.638Z,21.02
2023-03-02T23:29:02.889Z,21.02
2023-03-02T23:31:30.689Z,21.07
2023-03-02T23:33:57.535Z,21.09
2023-03-02T23:36:24.234Z,21.06
2023-03-02T23:38:51.220Z,21.05
2023-03-02T23:41:18.395Z,21.05
2023-03-02T23:43:46.108Z,21.07
2023-03-02T23:46:14.271Z,21.10
2023-03-02T23:48:42.303Z,21.10
2023-03-02T23:51:09.655Z,21.12
2023-03-02T23:53:36.211Z,21.11
2023-03-02T23:56:02.870Z,21.07
2023-03-02T23:58:29.515Z,21.04
